»·PEaware :: N101JP KCRQ-KBUR

N101JP :: KCRQ-KBUR

FLIGHT INFORMATION

Flight Status: Arrived
Operator: Privately registered:
United States
More flights under this callsign
Pilot: James T. (870)
Aircraft: PILATUS PC-12 EAGLE
(PC12)
More flights by this aircraft type
Origin: KCRQ McClellan-Palomar
United States
Destination: KBUR Bob Hope-Burbank
United States
More flights between these airports :: More routes between these airports
Route: +MZB293 PEBLE SLI148 SLI V23 LAX LAX316 SILEX
File this flight plan on PilotEdge
Remarks:
Altitude:
(Current/Filed)
80ft
Speed:
(Current/Filed)
200kts
Departed: 04-Jul-15 10:42 AM
Arrived: 04-Jul-15 11:21 AM
Distance/Time
Traveled:
84nm/0:39
Distance/Time
To Go:
Arrived

Flight Plot

Page will automatically refresh every two minutes.


Map Options




Map Legend


Flown Route
Filed Route
Departure Airport
Arrival Airport
Navaid (VOR, NDB)
Fix

Horizontal Profiles

Position Reports

Time Latitude Longitude Heading Altitude Ground
Speed
04-Jul-15 10:33 33.127531 -117.274831 79 337ft 0kts
04-Jul-15 10:34 33.127531 -117.274831 79 337ft 0kts
04-Jul-15 10:35 33.127531 -117.274831 79 337ft 0kts
04-Jul-15 10:36 33.127531 -117.274831 79 337ft 0kts
04-Jul-15 10:37 33.127531 -117.274831 79 337ft 0kts
04-Jul-15 10:38 33.128118 -117.273040 71 336ft 10kts
04-Jul-15 10:39 33.128665 -117.272163 344 336ft 0kts
04-Jul-15 10:40 33.128750 -117.272189 345 336ft 5kts
04-Jul-15 10:41 33.127189 -117.290662 263 647ft 131kts
04-Jul-15 10:42 33.122229 -117.341598 263 2216ft 162kts
04-Jul-15 10:43 33.117018 -117.395043 263 3946ft 165kts
04-Jul-15 10:44 33.115746 -117.449593 270 5667ft 167kts
04-Jul-15 10:45 33.119634 -117.504083 282 7320ft 166kts
04-Jul-15 10:46 33.130395 -117.561514 282 8007ft 199kts
04-Jul-15 10:47 33.142798 -117.627522 282 7991ft 210kts
04-Jul-15 10:48 33.155589 -117.695621 283 7991ft 212kts
04-Jul-15 10:49 33.168232 -117.763119 283 7991ft 212kts
04-Jul-15 10:50 33.182471 -117.829604 309 7937ft 214kts
04-Jul-15 10:51 33.235159 -117.855003 341 7996ft 211kts
04-Jul-15 10:52 33.290028 -117.875270 341 8004ft 212kts
04-Jul-15 10:53 33.346301 -117.895713 341 8004ft 214kts
04-Jul-15 10:54 33.402538 -117.916115 341 8002ft 214kts
04-Jul-15 10:55 33.456310 -117.935643 341 7999ft 214kts
04-Jul-15 10:56 33.509831 -117.955108 341 7999ft 215kts
04-Jul-15 10:57 33.563666 -117.974710 342 7999ft 216kts
04-Jul-15 10:58 33.619943 -117.995224 342 7999ft 217kts
04-Jul-15 10:59 33.676292 -118.015797 342 7999ft 218kts
04-Jul-15 11:00 33.732905 -118.036494 342 7999ft 218kts
04-Jul-15 11:01 33.784077 -118.066325 292 8047ft 211kts
04-Jul-15 11:02 33.802738 -118.131023 285 8002ft 212kts
04-Jul-15 11:03 33.818784 -118.193934 284 7996ft 207kts
04-Jul-15 11:04 33.835600 -118.260243 284 7767ft 214kts
04-Jul-15 11:05 33.853134 -118.329632 284 6593ft 221kts
04-Jul-15 11:06 33.889739 -118.385665 316 5984ft 207kts
04-Jul-15 11:07 33.930624 -118.429434 317 5994ft 189kts
04-Jul-15 11:08 33.975322 -118.460371 329 5994ft 183kts
04-Jul-15 11:09 34.019384 -118.489830 328 5995ft 180kts
04-Jul-15 11:10 34.062546 -118.518659 329 6017ft 172kts
04-Jul-15 11:11 34.099655 -118.551574 318 6010ft 161kts
04-Jul-15 11:12 34.132032 -118.587656 313 6016ft 156kts
04-Jul-15 11:13 34.158340 -118.617173 313 6015ft 156kts
04-Jul-15 11:14 34.194326 -118.625717 63 5639ft 161kts
04-Jul-15 11:15 34.205956 -118.574324 95 4468ft 156kts
04-Jul-15 11:16 34.200499 -118.515508 97 3023ft 142kts
04-Jul-15 11:17 34.199318 -118.477800 93 2532ft 142kts
04-Jul-15 11:18 34.198744 -118.431988 93 1584ft 118kts
04-Jul-15 11:19 34.198411 -118.395085 95 1361ft 102kts
04-Jul-15 11:20 34.197857 -118.364315 91 781ft 16kts
04-Jul-15 11:21 34.199069 -118.360280 28 781ft 11kts
04-Jul-15 11:22 34.200116 -118.359069 84 781ft 0kts

Navigation Log

Ident Type
Flight plan parsing failed, navigation log unavailable